Terminal Aerodrome Forecast
Issued by NWS

Home | Current Version | Previous Version | Text Only | Print | Product List | Glossary On
Versions: 1 2 3 4 5 6 7 8 9 10 11 12 13 14 15 16 17
000
FTUS41 KBOX 231122
TAFACK
TAF
KACK 231122Z 2312/2412 18009KT P6SM FEW013
     FM231300 23010KT P6SM FEW250
     FM231600 25011G20KT P6SM FEW250
     FM232300 26010KT P6SM SCT130
     FM240100 29008KT P6SM VCSH BKN250
     FM240300 34007KT P6SM SCT040
     FM240900 30006KT P6SM FEW120=

USA.gov is the U.S. government's official web portal to all federal, state and local government web resources and services.